Elger Bay, Washington
Current Conditions -  °F | °C
As of 10:55 PM on Saturday 20 Dec 2014 (Local Time) from KAWO Reporting Station
Overcast Overcast  
Wind Chill: 54°   Ceiling: 1900
Heat Index: 54°   Visibility: 10mi
Dew Point: 48°   Wind: 13mph
Humidity: 82%   Direction: 190°S
Pressure: 29.46"   Gusts: 17mph
Location:  48.2145°N, 122.297°W
Report Text: KAWO 210655Z AUTO 19011G15KT 10SM BKN019 BKN080 OVC120 12/09 A2946 RMK AO1
Loading
Personal Weather Stations






























Interactive Weather Map New forecast layout! Learn more

10-Day Weather Forecast

Advertisements
Track Severe Weather on mobile